Terminal Aerodrome Forecast
Issued by NWS Louisville, KY

Home | Current Version | Previous Version | Text Only | Print | Product List | Glossary On
Versions: 1 2 3 4 5 6 7 8 9 10 11 12 13 14 15 16 17 18 19 20
000
FTUS43 KLMK 221400 AAA
TAFSDF
TAF AMD
KSDF 221428Z 2214/2318 VRB03KT P6SM BKN022
     FM221700 15009KT P6SM BKN025
     FM222200 13008KT P6SM VCSH BKN015
     FM230200 16012KT 4SM -SHRA BR BKN015
     FM231300 21008KT P6SM VCSH BKN025=

USA.gov is the U.S. government's official web portal to all federal, state and local government web resources and services.